createdAt,value
2019-01-24T00:00:35.782Z,972.53
2019-01-24T00:01:35.964Z,972.56
2019-01-24T00:02:36.129Z,972.54
2019-01-24T00:03:36.320Z,972.61
2019-01-24T00:04:36.499Z,972.56
2019-01-24T00:05:36.677Z,972.58
2019-01-24T00:06:36.850Z,972.58
2019-01-24T00:07:37.027Z,972.56
2019-01-24T00:08:37.204Z,972.57
2019-01-24T00:09:37.382Z,972.60
2019-01-24T00:10:37.549Z,972.64
2019-01-24T00:11:37.728Z,972.62
2019-01-24T00:12:37.900Z,972.59
2019-01-24T00:13:38.207Z,972.64
2019-01-24T00:14:38.254Z,972.58
2019-01-24T00:15:38.428Z,972.61
2019-01-24T00:16:38.609Z,972.64
2019-01-24T00:17:38.789Z,972.62
2019-01-24T00:18:38.964Z,972.65
2019-01-24T00:19:39.144Z,972.69
2019-01-24T00:20:39.315Z,972.70
2019-01-24T00:21:39.491Z,972.71
2019-01-24T00:22:39.664Z,972.68
2019-01-24T00:23:39.838Z,972.69
2019-01-24T00:24:40.116Z,972.69
2019-01-24T00:25:40.162Z,972.70
2019-01-24T00:26:40.347Z,972.76
2019-01-24T00:27:40.517Z,972.79
2019-01-24T00:28:40.710Z,972.78
2019-01-24T00:29:40.874Z,972.75
2019-01-24T00:30:41.055Z,972.78
2019-01-24T00:31:41.231Z,972.79
2019-01-24T00:32:41.404Z,972.79
2019-01-24T00:33:41.582Z,972.80
2019-01-24T00:34:41.764Z,972.78
2019-01-24T00:35:41.933Z,972.85
2019-01-24T00:36:42.118Z,972.84
2019-01-24T00:37:42.298Z,972.88
2019-01-24T00:38:42.497Z,972.93
2019-01-24T00:39:42.668Z,972.89
2019-01-24T00:40:42.845Z,972.94
2019-01-24T00:41:43.020Z,972.97
2019-01-24T00:42:43.195Z,972.92
2019-01-24T00:43:43.374Z,972.99
2019-01-24T00:44:43.559Z,972.98
2019-01-24T00:45:43.723Z,972.99
2019-01-24T00:46:43.901Z,972.96
2019-01-24T00:47:44.078Z,972.98
2019-01-24T00:48:44.254Z,973.03
2019-01-24T00:49:44.430Z,972.97
2019-01-24T00:50:44.624Z,972.97
2019-01-24T00:51:44.801Z,972.99
2019-01-24T00:52:45.012Z,973.03
2019-01-24T00:53:45.163Z,973.04
2019-01-24T00:54:45.342Z,973.03
2019-01-24T00:55:45.518Z,973.01
2019-01-24T00:56:45.696Z,973.06
2019-01-24T00:57:45.870Z,973.07
2019-01-24T00:58:46.050Z,973.06
2019-01-24T00:59:46.225Z,973.06
2019-01-24T01:00:46.401Z,973.14
2019-01-24T01:01:46.582Z,973.11
2019-01-24T01:02:46.753Z,973.10
2019-01-24T01:03:46.945Z,973.10
2019-01-24T01:04:47.125Z,973.15
2019-01-24T01:05:47.301Z,973.18
2019-01-24T01:06:47.482Z,973.20
2019-01-24T01:07:47.656Z,973.21
2019-01-24T01:08:47.838Z,973.25
2019-01-24T01:09:48.015Z,973.28
2019-01-24T01:10:48.197Z,973.25
2019-01-24T01:11:48.375Z,973.30
2019-01-24T01:12:48.547Z,973.28
2019-01-24T01:13:48.721Z,973.30
2019-01-24T01:14:48.903Z,973.26
2019-01-24T01:15:49.076Z,973.28
2019-01-24T01:16:49.255Z,973.31
2019-01-24T01:17:49.432Z,973.30
2019-01-24T01:18:49.607Z,973.36
2019-01-24T01:19:49.782Z,973.40
2019-01-24T01:20:49.962Z,973.42
2019-01-24T01:21:50.141Z,973.46
2019-01-24T01:22:50.314Z,973.45
2019-01-24T01:23:50.494Z,973.48
2019-01-24T01:24:50.674Z,973.50
2019-01-24T01:25:50.848Z,973.49
2019-01-24T01:26:51.029Z,973.52
2019-01-24T01:27:51.199Z,973.53
2019-01-24T01:28:51.376Z,973.56
2019-01-24T01:29:51.563Z,973.55
2019-01-24T01:30:51.742Z,973.50
2019-01-24T01:31:51.906Z,973.55
2019-01-24T01:32:52.086Z,973.54
2019-01-24T01:33:52.269Z,973.58
2019-01-24T01:34:52.457Z,973.58
2019-01-24T01:35:52.643Z,973.59
2019-01-24T01:36:52.811Z,973.57
2019-01-24T01:37:52.989Z,973.59
2019-01-24T01:38:53.172Z,973.55
2019-01-24T01:39:53.350Z,973.54
2019-01-24T01:40:53.524Z,973.56
2019-01-24T01:41:53.702Z,973.57
2019-01-24T01:42:53.875Z,973.64
2019-01-24T01:43:54.056Z,973.65
2019-01-24T01:44:54.231Z,973.64
2019-01-24T01:45:54.394Z,973.69
2019-01-24T01:48:37.245Z,973.64
2019-01-24T01:49:37.412Z,973.68
2019-01-24T01:50:37.587Z,973.65
2019-01-24T01:51:37.756Z,973.67
2019-01-24T01:52:37.930Z,973.67
2019-01-24T01:53:38.107Z,973.67
2019-01-24T01:54:38.277Z,973.71
2019-01-24T01:55:38.450Z,973.68
2019-01-24T01:56:38.631Z,973.73
2019-01-24T01:57:38.800Z,973.74
2019-01-24T01:58:38.976Z,973.73
2019-01-24T01:59:39.148Z,973.73
2019-01-24T02:00:39.326Z,973.72
2019-01-24T02:01:39.495Z,973.70
2019-01-24T02:02:39.672Z,973.74
2019-01-24T02:03:39.849Z,973.75
2019-01-24T02:04:42.947Z,973.73
2019-01-24T02:05:40.209Z,973.73
2019-01-24T02:06:40.380Z,973.72
2019-01-24T02:07:40.567Z,973.74
2019-01-24T02:08:40.742Z,973.72
2019-01-24T02:09:40.916Z,973.81
2019-01-24T02:10:41.097Z,973.80
2019-01-24T02:11:41.270Z,973.79
2019-01-24T02:12:41.444Z,973.77
2019-01-24T02:13:41.621Z,973.74
2019-01-24T02:14:41.798Z,973.74
2019-01-24T02:15:41.968Z,973.78
2019-01-24T02:16:42.155Z,973.73
2019-01-24T02:17:42.326Z,973.77
2019-01-24T02:18:42.508Z,973.80
2019-01-24T02:19:42.681Z,973.81
2019-01-24T02:20:42.856Z,973.81
2019-01-24T02:21:43.029Z,973.82
2019-01-24T02:22:43.205Z,973.82
2019-01-24T02:23:43.385Z,973.89
2019-01-24T02:24:43.557Z,973.87
2019-01-24T02:25:43.729Z,973.86
2019-01-24T02:26:43.922Z,973.90
2019-01-24T02:27:44.094Z,973.94
2019-01-24T02:28:44.271Z,973.96
2019-01-24T02:29:44.445Z,973.93
2019-01-24T02:30:44.618Z,973.99
2019-01-24T02:31:44.796Z,973.96
2019-01-24T02:32:44.974Z,973.95
2019-01-24T02:33:45.138Z,974.00
2019-01-24T02:34:49.682Z,974.02
2019-01-24T02:35:45.487Z,974.03
2019-01-24T02:36:45.690Z,974.07
2019-01-24T02:37:46.235Z,974.10
2019-01-24T02:38:46.069Z,974.07
2019-01-24T02:39:46.247Z,974.08
2019-01-24T02:40:46.420Z,974.11
2019-01-24T02:41:46.604Z,974.11
2019-01-24T02:42:46.770Z,974.17
2019-01-24T02:43:46.960Z,974.16
2019-01-24T02:44:47.126Z,974.14
2019-01-24T02:45:47.300Z,974.07
2019-01-24T02:46:47.480Z,974.12
2019-01-24T02:47:47.659Z,974.12
2019-01-24T02:48:47.838Z,974.13
2019-01-24T02:49:48.010Z,974.17
2019-01-24T02:50:48.190Z,974.17
2019-01-24T02:51:48.359Z,974.16
2019-01-24T02:52:48.539Z,974.18
2019-01-24T02:53:48.731Z,974.17
2019-01-24T02:54:48.883Z,974.18
2019-01-24T02:55:49.067Z,974.17
2019-01-24T02:56:49.246Z,974.15
2019-01-24T02:57:49.423Z,974.19
2019-01-24T02:58:49.598Z,974.20
2019-01-24T02:59:49.771Z,974.17
2019-01-24T03:00:49.945Z,974.17
2019-01-24T03:01:50.119Z,974.19
2019-01-24T03:02:50.304Z,974.16
2019-01-24T03:03:50.465Z,974.20
2019-01-24T03:04:56.645Z,974.11
2019-01-24T03:05:50.810Z,974.18
2019-01-24T03:06:50.988Z,974.21
2019-01-24T03:07:51.160Z,974.22
2019-01-24T03:08:51.328Z,974.26
2019-01-24T03:09:51.515Z,974.29
2019-01-24T03:10:51.665Z,974.22
2019-01-24T03:11:51.854Z,974.30
2019-01-24T03:12:52.017Z,974.24
2019-01-24T03:13:52.189Z,974.28
2019-01-24T03:14:52.380Z,974.24
2019-01-24T03:15:52.545Z,974.22
2019-01-24T03:16:52.720Z,974.27
2019-01-24T03:17:52.889Z,974.27
2019-01-24T03:18:53.063Z,974.29
2019-01-24T03:19:53.248Z,974.26
2019-01-24T03:20:53.408Z,974.31
2019-01-24T03:21:53.577Z,974.32
2019-01-24T03:22:53.744Z,974.28
2019-01-24T03:23:53.917Z,974.31
2019-01-24T03:24:54.088Z,974.31
2019-01-24T03:25:54.258Z,974.34
2019-01-24T03:26:54.445Z,974.32
2019-01-24T03:27:54.619Z,974.34
2019-01-24T03:28:54.809Z,974.38
2019-01-24T03:29:54.995Z,974.35
2019-01-24T03:30:55.182Z,974.33
2019-01-24T03:31:55.343Z,974.29
2019-01-24T03:32:55.511Z,974.31
2019-01-24T03:33:55.686Z,974.30
2019-01-24T03:34:55.854Z,974.33
2019-01-24T03:35:56.026Z,974.27
2019-01-24T03:36:56.205Z,974.30
2019-01-24T03:37:56.382Z,974.32
2019-01-24T03:38:56.557Z,974.32
2019-01-24T03:39:56.740Z,974.26
2019-01-24T03:40:56.895Z,974.29
2019-01-24T03:41:57.067Z,974.27
2019-01-24T03:42:57.242Z,974.30
2019-01-24T03:43:57.421Z,974.28
2019-01-24T03:44:57.595Z,974.28
2019-01-24T03:45:57.771Z,974.32
2019-01-24T03:46:57.953Z,974.31
2019-01-24T03:47:58.108Z,974.32
2019-01-24T03:48:58.290Z,974.34
2019-01-24T03:49:58.462Z,974.35
2019-01-24T03:50:58.630Z,974.37
2019-01-24T03:51:58.827Z,974.29
2019-01-24T03:52:58.988Z,974.31
2019-01-24T03:53:59.155Z,974.33
2019-01-24T03:54:59.331Z,974.37
2019-01-24T03:55:59.501Z,974.32
2019-01-24T03:56:59.675Z,974.39
2019-01-24T03:57:59.850Z,974.33
2019-01-24T03:59:00.027Z,974.36
2019-01-24T04:00:00.360Z,974.33
2019-01-24T04:01:00.386Z,974.35
2019-01-24T04:02:00.549Z,974.38
2019-01-24T04:03:00.727Z,974.37
2019-01-24T04:04:00.904Z,974.38
2019-01-24T04:05:01.118Z,974.36
2019-01-24T04:06:01.241Z,974.40
2019-01-24T04:07:01.422Z,974.42
2019-01-24T04:08:01.598Z,974.41
2019-01-24T04:09:01.770Z,974.41
2019-01-24T04:10:01.968Z,974.42
2019-01-24T04:11:02.117Z,974.40
2019-01-24T04:12:02.290Z,974.39
2019-01-24T04:13:02.463Z,974.41
2019-01-24T04:14:02.664Z,974.38
2019-01-24T04:15:02.818Z,974.41
2019-01-24T04:16:02.986Z,974.41
2019-01-24T04:17:03.165Z,974.43
2019-01-24T04:18:03.343Z,974.45
2019-01-24T04:19:03.509Z,974.44
2019-01-24T04:20:03.685Z,974.45
2019-01-24T04:21:03.902Z,974.47
2019-01-24T04:22:04.080Z,974.44
2019-01-24T04:23:04.247Z,974.47
2019-01-24T04:24:04.422Z,974.46
2019-01-24T04:25:04.598Z,974.44
2019-01-24T04:26:04.769Z,974.46
2019-01-24T04:27:04.946Z,974.42
2019-01-24T04:28:05.117Z,974.44
2019-01-24T04:29:05.290Z,974.42
2019-01-24T04:30:05.467Z,974.42
2019-01-24T04:31:05.642Z,974.40
2019-01-24T04:32:05.818Z,974.39
2019-01-24T04:33:05.992Z,974.36
2019-01-24T04:34:06.171Z,974.41
2019-01-24T04:35:06.355Z,974.44
2019-01-24T04:36:06.545Z,974.44
2019-01-24T04:37:06.718Z,974.44
2019-01-24T04:38:06.894Z,974.48
2019-01-24T04:39:07.082Z,974.52
2019-01-24T04:40:07.246Z,974.50
2019-01-24T04:41:07.416Z,974.50
2019-01-24T04:42:07.589Z,974.46
2019-01-24T04:43:07.792Z,974.48
2019-01-24T04:44:07.936Z,974.46
2019-01-24T04:45:08.105Z,974.49
2019-01-24T04:46:08.286Z,974.50
2019-01-24T04:47:08.456Z,974.49
2019-01-24T04:48:08.638Z,974.46
2019-01-24T04:49:08.871Z,974.46
2019-01-24T04:50:08.991Z,974.44
2019-01-24T04:51:09.153Z,974.42
2019-01-24T04:52:09.321Z,974.43
2019-01-24T04:53:09.511Z,974.41
2019-01-24T04:54:09.683Z,974.43
2019-01-24T04:55:09.892Z,974.42
2019-01-24T04:56:10.043Z,974.41
2019-01-24T04:57:10.222Z,974.47
2019-01-24T04:58:10.410Z,974.44
2019-01-24T04:59:10.586Z,974.46
2019-01-24T05:00:10.801Z,974.48
2019-01-24T05:01:10.953Z,974.52
2019-01-24T05:02:11.122Z,974.51
2019-01-24T05:03:11.327Z,974.51
2019-01-24T05:04:11.485Z,974.54
2019-01-24T05:05:11.659Z,974.53
2019-01-24T05:06:11.826Z,974.52
2019-01-24T05:07:11.998Z,974.55
2019-01-24T05:08:12.173Z,974.55
2019-01-24T05:09:12.344Z,974.57
2019-01-24T05:10:12.529Z,974.57
2019-01-24T05:11:12.708Z,974.60
2019-01-24T05:12:12.884Z,974.58
2019-01-24T05:13:13.076Z,974.63
2019-01-24T05:14:13.339Z,974.59
2019-01-24T05:15:13.428Z,974.67
2019-01-24T05:16:13.615Z,974.65
2019-01-24T05:17:13.793Z,974.63
2019-01-24T05:18:13.972Z,974.63
2019-01-24T05:19:14.137Z,974.65
2019-01-24T05:20:14.319Z,974.70
2019-01-24T05:21:14.485Z,974.67
2019-01-24T05:22:14.659Z,974.66
2019-01-24T05:23:14.862Z,974.63
2019-01-24T05:24:15.039Z,974.69
2019-01-24T05:25:15.208Z,974.68
2019-01-24T05:26:15.390Z,974.66
2019-01-24T05:27:15.566Z,974.61
2019-01-24T05:28:15.743Z,974.64
2019-01-24T05:29:15.918Z,974.70
2019-01-24T05:30:16.128Z,974.67
2019-01-24T05:31:16.311Z,974.70
2019-01-24T05:32:16.483Z,974.66
2019-01-24T05:33:16.652Z,974.72
2019-01-24T05:34:16.832Z,974.77
2019-01-24T05:35:17.009Z,974.77
2019-01-24T05:36:17.231Z,974.75
2019-01-24T05:37:17.362Z,974.78
2019-01-24T05:38:17.540Z,974.76
2019-01-24T05:39:17.722Z,974.78
2019-01-24T05:40:17.892Z,974.83
2019-01-24T05:41:18.066Z,974.86
2019-01-24T05:42:18.236Z,974.90
2019-01-24T05:43:18.418Z,974.93
2019-01-24T05:44:18.588Z,974.93
2019-01-24T05:45:18.760Z,974.95
2019-01-24T05:46:18.932Z,975.04
2019-01-24T05:47:19.170Z,975.00
2019-01-24T05:48:19.226Z,975.03
2019-01-24T05:49:19.413Z,975.06
2019-01-24T05:50:19.587Z,975.06
2019-01-24T05:51:19.756Z,975.05
2019-01-24T05:52:19.994Z,975.08
2019-01-24T05:53:20.103Z,975.12
2019-01-24T05:54:20.260Z,975.12
2019-01-24T05:55:20.426Z,975.06
2019-01-24T05:56:20.594Z,975.10
2019-01-24T05:57:20.764Z,975.10
2019-01-24T05:58:20.939Z,975.09
2019-01-24T05:59:21.110Z,975.13
2019-01-24T06:00:21.299Z,975.13
2019-01-24T06:01:21.469Z,975.12
2019-01-24T06:02:21.645Z,975.13
2019-01-24T06:03:21.826Z,975.10
2019-01-24T06:04:21.998Z,975.11
2019-01-24T06:05:22.172Z,975.14
2019-01-24T06:06:22.349Z,975.13
2019-01-24T06:07:22.538Z,975.16
2019-01-24T06:08:22.708Z,975.18
2019-01-24T06:09:22.887Z,975.14
2019-01-24T06:10:23.061Z,975.18
2019-01-24T06:11:23.236Z,975.16
2019-01-24T06:12:23.417Z,975.21
2019-01-24T06:13:23.602Z,975.19
2019-01-24T06:14:23.774Z,975.15
2019-01-24T06:15:23.981Z,975.22
2019-01-24T06:16:24.165Z,975.24
2019-01-24T06:17:24.348Z,975.21
2019-01-24T06:18:24.501Z,975.26
2019-01-24T06:19:24.682Z,975.26
2019-01-24T06:20:24.868Z,975.27
2019-01-24T06:21:25.047Z,975.27
2019-01-24T06:22:25.219Z,975.28
2019-01-24T06:23:25.400Z,975.30
2019-01-24T06:24:25.579Z,975.30
2019-01-24T06:25:25.785Z,975.33
2019-01-24T06:26:25.926Z,975.26
2019-01-24T06:27:26.145Z,975.34
2019-01-24T06:28:26.267Z,975.28
2019-01-24T06:29:26.447Z,975.27
2019-01-24T06:30:26.623Z,975.30
2019-01-24T06:31:26.796Z,975.32
2019-01-24T06:32:26.967Z,975.36
2019-01-24T06:33:27.145Z,975.31
2019-01-24T06:34:27.319Z,975.36
2019-01-24T06:35:27.502Z,975.35
2019-01-24T06:36:27.677Z,975.33
2019-01-24T06:37:27.921Z,975.34
2019-01-24T06:38:27.971Z,975.39
2019-01-24T06:39:28.145Z,975.36
2019-01-24T06:40:28.320Z,975.39
2019-01-24T06:41:28.541Z,975.38
2019-01-24T06:42:28.967Z,975.41
2019-01-24T06:43:28.892Z,975.44
2019-01-24T06:44:29.079Z,975.39
2019-01-24T06:45:29.239Z,975.38
2019-01-24T06:46:29.412Z,975.41
2019-01-24T06:47:29.587Z,975.40
2019-01-24T06:48:29.760Z,975.41
2019-01-24T06:49:29.959Z,975.46
2019-01-24T06:50:30.121Z,975.46
2019-01-24T06:51:30.305Z,975.42
2019-01-24T06:52:30.481Z,975.39
2019-01-24T06:53:30.656Z,975.46
2019-01-24T06:54:30.833Z,975.48
2019-01-24T06:55:31.030Z,975.45
2019-01-24T06:56:31.182Z,975.46
2019-01-24T06:57:31.359Z,975.47
2019-01-24T06:58:31.538Z,975.47
2019-01-24T06:59:31.704Z,975.49
2019-01-24T07:00:31.879Z,975.52
2019-01-24T07:01:32.109Z,975.55
2019-01-24T07:02:32.227Z,975.58
2019-01-24T07:03:32.403Z,975.56
2019-01-24T07:04:32.583Z,975.59
2019-01-24T07:05:32.813Z,975.59
2019-01-24T07:06:32.935Z,975.63
2019-01-24T07:07:33.115Z,975.65
2019-01-24T07:08:33.302Z,975.67
2019-01-24T07:09:33.472Z,975.64
2019-01-24T07:10:33.660Z,975.66
2019-01-24T07:11:33.828Z,975.69
2019-01-24T07:12:34.007Z,975.68
2019-01-24T07:13:34.178Z,975.70
2019-01-24T07:14:34.493Z,975.68
2019-01-24T07:15:34.536Z,975.69
2019-01-24T07:16:34.715Z,975.72
2019-01-24T07:17:34.891Z,975.66
2019-01-24T07:18:35.075Z,975.71
2019-01-24T07:19:35.262Z,975.76
2019-01-24T07:20:35.444Z,975.75
2019-01-24T07:21:35.620Z,975.73
2019-01-24T07:22:35.816Z,975.71
2019-01-24T07:23:35.969Z,975.73
2019-01-24T07:24:36.160Z,975.72
2019-01-24T07:25:36.329Z,975.71
2019-01-24T07:26:36.522Z,975.76
2019-01-24T07:27:36.716Z,975.74
2019-01-24T07:28:36.880Z,975.77
2019-01-24T07:29:37.045Z,975.76
2019-01-24T07:30:37.271Z,975.81
2019-01-24T07:31:37.378Z,975.80
2019-01-24T07:32:37.558Z,975.81
2019-01-24T07:33:37.752Z,975.81
2019-01-24T07:34:37.946Z,975.81
2019-01-24T07:35:38.108Z,975.81
2019-01-24T07:36:38.318Z,975.87
2019-01-24T07:37:38.438Z,975.85
2019-01-24T07:38:38.612Z,975.88
2019-01-24T07:39:38.791Z,975.88
2019-01-24T07:40:38.970Z,975.89
2019-01-24T07:41:39.129Z,975.90
2019-01-24T07:42:39.298Z,975.97
2019-01-24T07:43:39.465Z,975.94
2019-01-24T07:44:39.647Z,976.00
2019-01-24T07:45:39.817Z,976.02
2019-01-24T07:46:39.981Z,976.02
2019-01-24T07:47:40.157Z,976.02
2019-01-24T07:48:40.334Z,976.08
2019-01-24T07:49:40.512Z,976.10
2019-01-24T07:50:40.690Z,976.06
2019-01-24T07:51:40.863Z,976.09
2019-01-24T07:52:41.040Z,976.10
2019-01-24T07:53:41.218Z,976.15
2019-01-24T07:54:41.390Z,976.12
2019-01-24T07:55:41.563Z,976.13
2019-01-24T07:56:41.741Z,976.13
2019-01-24T07:57:41.917Z,976.11
2019-01-24T07:58:42.108Z,976.12
2019-01-24T07:59:42.266Z,976.11
2019-01-24T08:00:42.437Z,976.12
2019-01-24T08:01:42.610Z,976.11
2019-01-24T08:02:42.788Z,976.12
2019-01-24T08:03:42.966Z,976.12
2019-01-24T08:04:43.176Z,976.11
2019-01-24T08:05:43.328Z,976.15
2019-01-24T08:06:43.483Z,976.12
2019-01-24T08:07:43.654Z,976.14
2019-01-24T08:08:43.837Z,976.13
2019-01-24T08:09:44.009Z,976.13
2019-01-24T08:10:44.190Z,976.13
2019-01-24T08:11:44.358Z,976.14
2019-01-24T08:12:44.542Z,976.16
2019-01-24T08:13:44.719Z,976.15
2019-01-24T08:14:44.895Z,976.20
2019-01-24T08:15:45.796Z,976.17
2019-01-24T08:16:45.267Z,976.16
2019-01-24T08:17:45.446Z,976.17
2019-01-24T08:18:45.627Z,976.21
2019-01-24T08:19:45.804Z,976.20
2019-01-24T08:20:45.984Z,976.22
2019-01-24T08:21:46.171Z,976.24
2019-01-24T08:22:46.356Z,976.21
2019-01-24T08:23:46.542Z,976.21
2019-01-24T08:24:46.722Z,976.18
2019-01-24T08:25:46.892Z,976.25
2019-01-24T08:26:47.067Z,976.23
2019-01-24T08:27:47.245Z,976.20
2019-01-24T08:28:47.422Z,976.19
2019-01-24T08:29:47.601Z,976.26
2019-01-24T08:30:47.780Z,976.20
2019-01-24T08:31:47.954Z,976.21
2019-01-24T08:32:48.136Z,976.25
2019-01-24T08:33:48.310Z,976.24
2019-01-24T08:34:48.485Z,976.23
2019-01-24T08:35:48.661Z,976.26
2019-01-24T08:36:48.836Z,976.21
2019-01-24T08:37:49.041Z,976.17
2019-01-24T08:38:49.186Z,976.19
2019-01-24T08:39:49.357Z,976.21
2019-01-24T08:40:49.530Z,976.15
2019-01-24T08:41:49.707Z,976.20
2019-01-24T08:42:49.883Z,976.18
2019-01-24T08:43:50.056Z,976.22
2019-01-24T08:44:50.236Z,976.23
2019-01-24T08:45:50.403Z,976.23
2019-01-24T08:46:50.583Z,976.23
2019-01-24T08:47:50.775Z,976.26
2019-01-24T08:48:50.953Z,976.26
2019-01-24T08:49:51.138Z,976.28
2019-01-24T08:50:51.314Z,976.29
2019-01-24T08:51:51.488Z,976.30
2019-01-24T08:52:51.679Z,976.30
2019-01-24T08:53:51.883Z,976.33
2019-01-24T08:54:52.057Z,976.33
2019-01-24T08:55:52.239Z,976.31
2019-01-24T08:56:52.426Z,976.33
2019-01-24T08:57:52.600Z,976.34
2019-01-24T08:58:52.771Z,976.38
2019-01-24T08:59:52.947Z,976.36
2019-01-24T09:00:53.122Z,976.39
2019-01-24T09:01:53.309Z,976.36
2019-01-24T09:02:53.495Z,976.36
2019-01-24T09:03:53.668Z,976.35
2019-01-24T09:04:53.850Z,976.39
2019-01-24T09:05:54.042Z,976.40
2019-01-24T09:06:54.199Z,976.37
2019-01-24T09:07:54.373Z,976.38
2019-01-24T09:08:54.544Z,976.37
2019-01-24T09:09:54.719Z,976.39
2019-01-24T09:10:54.893Z,976.38
2019-01-24T09:11:55.067Z,976.39
2019-01-24T09:12:55.240Z,976.41
2019-01-24T09:13:55.422Z,976.46
2019-01-24T09:14:55.595Z,976.48
2019-01-24T09:15:55.778Z,976.48
2019-01-24T09:16:55.954Z,976.52
2019-01-24T09:17:56.135Z,976.50
2019-01-24T09:18:56.306Z,976.52
2019-01-24T09:19:56.491Z,976.54
2019-01-24T09:20:56.917Z,976.56
2019-01-24T09:21:56.857Z,976.56
2019-01-24T09:22:57.032Z,976.56
2019-01-24T09:23:57.203Z,976.58
2019-01-24T09:24:57.392Z,976.58
2019-01-24T09:25:57.568Z,976.62
2019-01-24T09:26:57.765Z,976.59
2019-01-24T09:27:57.922Z,976.63
2019-01-24T09:30:40.790Z,976.70
2019-01-24T09:31:40.991Z,976.71
2019-01-24T09:32:41.129Z,976.71
2019-01-24T09:33:41.298Z,976.72
2019-01-24T09:34:41.480Z,976.73
2019-01-24T09:35:41.664Z,976.79
2019-01-24T09:36:41.844Z,976.76
2019-01-24T09:37:42.013Z,976.76
2019-01-24T09:38:42.205Z,976.81
2019-01-24T09:39:42.388Z,976.81
2019-01-24T09:40:42.566Z,976.82
2019-01-24T09:41:42.737Z,976.88
2019-01-24T09:42:42.915Z,976.87
2019-01-24T09:43:43.097Z,976.88
2019-01-24T09:44:43.291Z,976.90
2019-01-24T09:45:43.492Z,976.94
2019-01-24T09:46:43.687Z,976.91
2019-01-24T09:47:43.869Z,976.94
2019-01-24T09:48:44.046Z,976.93
2019-01-24T09:49:44.235Z,976.93
2019-01-24T09:50:44.398Z,976.94
2019-01-24T09:51:44.580Z,976.95
2019-01-24T09:52:44.765Z,976.96
2019-01-24T09:53:44.939Z,976.93
2019-01-24T09:54:45.118Z,976.99
2019-01-24T09:55:45.297Z,976.99
2019-01-24T09:56:45.472Z,976.96
2019-01-24T09:57:45.660Z,977.00
2019-01-24T09:58:45.833Z,976.98
2019-01-24T09:59:46.014Z,977.01
2019-01-24T10:00:46.193Z,977.01
2019-01-24T10:01:46.369Z,977.07
2019-01-24T10:02:46.565Z,977.06
2019-01-24T10:03:46.782Z,977.06
2019-01-24T10:04:46.952Z,977.07
2019-01-24T10:05:47.131Z,977.09
2019-01-24T10:06:47.306Z,977.08
2019-01-24T10:07:47.482Z,977.10
2019-01-24T10:08:47.662Z,977.15
2019-01-24T10:09:47.845Z,977.16
2019-01-24T10:10:48.029Z,977.17
2019-01-24T10:11:48.204Z,977.14
2019-01-24T10:12:48.377Z,977.16
2019-01-24T10:13:48.561Z,977.16
2019-01-24T10:14:48.741Z,977.19
2019-01-24T10:15:48.914Z,977.18
2019-01-24T10:16:49.110Z,977.20
2019-01-24T10:17:49.268Z,977.21
2019-01-24T10:18:49.457Z,977.23
2019-01-24T10:19:49.627Z,977.23
2019-01-24T10:20:49.811Z,977.24
2019-01-24T10:21:49.971Z,977.25
2019-01-24T10:22:50.163Z,977.24
2019-01-24T10:23:50.348Z,977.22
2019-01-24T10:24:50.529Z,977.20
2019-01-24T10:25:50.707Z,977.24
2019-01-24T10:26:50.885Z,977.22
2019-01-24T10:27:51.053Z,977.24
2019-01-24T10:28:51.238Z,977.24
2019-01-24T10:29:51.419Z,977.23
2019-01-24T10:30:51.598Z,977.23
2019-01-24T10:31:51.784Z,977.25
2019-01-24T10:32:51.941Z,977.28
2019-01-24T10:33:52.132Z,977.24
2019-01-24T10:34:52.308Z,977.24
2019-01-24T10:35:52.486Z,977.24
2019-01-24T10:36:52.662Z,977.24
2019-01-24T10:37:52.838Z,977.17
2019-01-24T10:38:53.017Z,977.17
2019-01-24T10:39:53.193Z,977.15
2019-01-24T10:40:53.384Z,977.14
2019-01-24T10:41:53.556Z,977.15
2019-01-24T10:42:53.744Z,977.18
2019-01-24T10:43:53.925Z,977.16
2019-01-24T10:44:54.102Z,977.19
2019-01-24T10:45:54.292Z,977.18
2019-01-24T10:46:54.471Z,977.16
2019-01-24T10:47:54.647Z,977.16
2019-01-24T10:48:54.828Z,977.19
2019-01-24T10:49:55.004Z,977.13
2019-01-24T10:50:55.177Z,977.16
2019-01-24T10:51:55.355Z,977.14
2019-01-24T10:52:55.593Z,977.17
2019-01-24T10:53:55.707Z,977.14
2019-01-24T10:54:55.904Z,977.15
2019-01-24T10:55:56.090Z,977.15
2019-01-24T10:56:56.272Z,977.17
2019-01-24T10:57:56.456Z,977.12
2019-01-24T10:58:56.626Z,977.15
2019-01-24T10:59:56.805Z,977.17
2019-01-24T11:00:56.986Z,977.12
2019-01-24T11:01:57.175Z,977.16
2019-01-24T11:02:57.352Z,977.19
2019-01-24T11:03:57.538Z,977.15
2019-01-24T11:04:57.731Z,977.17
2019-01-24T11:05:57.919Z,977.20
2019-01-24T11:06:58.056Z,977.20
2019-01-24T11:07:58.239Z,977.18
2019-01-24T11:08:58.423Z,977.19
2019-01-24T11:09:58.596Z,977.21
2019-01-24T11:10:58.794Z,977.22
2019-01-24T11:11:58.977Z,977.21
2019-01-24T11:12:59.155Z,977.14
2019-01-24T11:13:59.331Z,977.17
2019-01-24T11:14:59.512Z,977.17
2019-01-24T11:15:59.697Z,977.18
2019-01-24T11:16:59.867Z,977.18
2019-01-24T11:18:00.058Z,977.17
2019-01-24T11:19:00.246Z,977.18
2019-01-24T11:20:00.431Z,977.18
2019-01-24T11:21:00.611Z,977.20
2019-01-24T11:22:00.785Z,977.20
2019-01-24T11:23:00.965Z,977.22
2019-01-24T11:24:01.150Z,977.24
2019-01-24T11:25:01.353Z,977.25
2019-01-24T11:26:01.531Z,977.24
2019-01-24T11:27:01.705Z,977.25
2019-01-24T11:28:01.877Z,977.23
2019-01-24T11:29:02.054Z,977.23
2019-01-24T11:30:02.231Z,977.22
2019-01-24T11:31:02.416Z,977.21
2019-01-24T11:32:02.608Z,977.22
2019-01-24T11:33:02.787Z,977.20
2019-01-24T11:34:02.974Z,977.19
2019-01-24T11:35:03.151Z,977.17
2019-01-24T11:36:03.322Z,977.20
2019-01-24T11:37:03.499Z,977.17
2019-01-24T11:38:03.684Z,977.19
2019-01-24T11:39:03.870Z,977.19
2019-01-24T11:40:04.055Z,977.17
2019-01-24T11:41:04.229Z,977.15
2019-01-24T11:42:04.412Z,977.16
2019-01-24T11:43:04.603Z,977.17
2019-01-24T11:44:04.791Z,977.08
2019-01-24T11:45:04.975Z,977.10
2019-01-24T11:46:05.169Z,977.11
2019-01-24T11:47:05.345Z,977.13
2019-01-24T11:48:05.529Z,977.12
2019-01-24T11:49:05.708Z,977.18
2019-01-24T11:50:05.882Z,977.17
2019-01-24T11:51:06.074Z,977.14
2019-01-24T11:52:06.253Z,977.14
2019-01-24T11:53:06.434Z,977.17
2019-01-24T11:54:06.636Z,977.13
2019-01-24T11:55:06.794Z,977.15
2019-01-24T11:56:07.715Z,977.13
2019-01-24T11:57:07.165Z,977.11
2019-01-24T11:58:07.346Z,977.12
2019-01-24T11:59:07.525Z,977.08
2019-01-24T12:00:07.710Z,977.14
2019-01-24T12:01:07.893Z,977.09
2019-01-24T12:02:08.075Z,977.09
2019-01-24T12:03:08.268Z,977.13
2019-01-24T12:04:08.444Z,977.07
2019-01-24T12:05:08.626Z,977.13
2019-01-24T12:06:08.823Z,977.11
2019-01-24T12:07:08.993Z,977.11
2019-01-24T12:08:09.165Z,977.11
2019-01-24T12:09:09.345Z,977.11
2019-01-24T12:10:09.530Z,977.13
2019-01-24T12:11:09.711Z,977.14
2019-01-24T12:12:09.913Z,977.13
2019-01-24T12:13:10.095Z,977.16
2019-01-24T12:14:10.274Z,977.15
2019-01-24T12:15:10.456Z,977.12
2019-01-24T12:16:10.639Z,977.10
2019-01-24T12:17:10.844Z,977.11
2019-01-24T12:18:11.028Z,977.10
2019-01-24T12:19:11.243Z,977.10
2019-01-24T12:20:11.442Z,977.09
2019-01-24T12:21:11.634Z,977.08
2019-01-24T12:22:11.811Z,977.11
2019-01-24T12:23:12.045Z,977.11
2019-01-24T12:24:12.252Z,977.10
2019-01-24T12:25:12.415Z,977.11
2019-01-24T12:26:12.598Z,977.11
2019-01-24T12:27:12.833Z,977.08
2019-01-24T12:28:12.959Z,977.09
2019-01-24T12:29:13.155Z,977.10
2019-01-24T12:30:13.340Z,977.08
2019-01-24T12:31:13.506Z,977.08
2019-01-24T12:32:13.695Z,977.05
2019-01-24T12:33:13.878Z,977.02
2019-01-24T12:34:14.050Z,977.00